West Point, Iowa
Current Conditions -  °F | °C
As of 5:15 PM on Wednesday 26 Nov 2014 (Local Time) from KFSW Reporting Station
Light Snow Light Snow  
Wind Chill: 25°   Ceiling: 500
Heat Index: 32°   Visibility: 1.5mi
Dew Point: 30°   Wind: 8mph
Humidity: 93%   Direction: 70°ENE
Pressure: 30.08"   Gusts: NA
Location:  40.72°N, 91.45°W
Report Text: KFSW 262315Z AUTO 07007KT 1 1/2SM -SN OVC005 00/M01 A3008 RMK AO2
Loading
Personal Weather Stations






























Interactive Weather Map New forecast layout! Learn more

10-Day Weather Forecast

Advertisements
Track Severe Weather on mobile